createdAt,value
2022-09-01T08:55:38.545Z,98798.66
2022-09-01T08:58:10.186Z,98797.25
2022-09-01T09:01:22.264Z,98800.03
2022-09-01T09:04:16.238Z,98793.00
2022-09-01T09:07:21.795Z,98796.69
2022-09-01T09:10:18.978Z,98800.81
2022-09-01T09:13:13.115Z,98801.84
2022-09-01T09:16:10.975Z,98806.69
2022-09-01T09:18:57.521Z,98805.22
2022-09-01T09:21:35.607Z,98793.03
2022-09-01T09:24:22.384Z,98799.84
2022-09-01T09:26:59.802Z,98795.25
2022-09-01T09:29:28.436Z,98803.81
2022-09-01T09:32:35.243Z,98805.72
2022-09-01T09:35:23.735Z,98803.47
2022-09-01T09:37:52.325Z,98810.94
2022-09-01T09:40:26.797Z,98798.88
2022-09-01T09:42:54.431Z,98803.34
2022-09-01T09:45:29.759Z,98805.31
2022-09-01T09:47:59.259Z,98788.88
2022-09-01T09:50:40.562Z,98792.09
2022-09-01T09:53:27.518Z,98795.03
2022-09-01T09:56:04.537Z,98786.03
2022-09-01T09:58:42.927Z,98787.34
2022-09-01T10:01:22.590Z,98785.31
2022-09-01T10:03:56.348Z,98787.66
2022-09-01T10:06:42.099Z,98790.03
2022-09-01T10:09:34.372Z,98786.19
2022-09-01T10:12:03.360Z,98780.25
2022-09-01T10:14:53.295Z,98772.97
2022-09-01T10:17:31.591Z,98771.91
2022-09-01T10:20:26.246Z,98763.34
2022-09-01T10:22:54.536Z,98763.59
2022-09-01T10:25:32.301Z,98753.78
2022-09-01T10:28:13.153Z,98753.50
2022-09-01T10:30:45.986Z,98753.50
2022-09-01T10:33:22.414Z,98757.38
2022-09-01T10:35:53.235Z,98749.34
2022-09-01T10:38:29.730Z,98755.78
2022-09-01T10:41:14.190Z,98758.13
2022-09-01T10:44:13.729Z,98759.94
2022-09-01T10:46:50.197Z,98764.59
2022-09-01T10:49:46.875Z,98758.66
2022-09-01T10:52:43.381Z,98761.53
2022-09-01T10:55:24.952Z,98749.63
2022-09-01T10:58:08.472Z,98755.63
2022-09-01T11:03:57.625Z,98754.34
2022-09-01T11:09:43.477Z,98759.53
2022-09-01T11:12:54.516Z,98753.28
2022-09-01T11:15:40.475Z,98748.06
2022-09-01T11:18:17.496Z,98746.28
2022-09-01T11:20:47.971Z,98755.63
2022-09-01T11:23:30.613Z,98752.75
2022-09-01T11:26:32.813Z,98758.47
2022-09-01T11:29:01.747Z,98765.44
2022-09-01T11:31:40.976Z,98760.53
2022-09-01T11:34:23.415Z,98769.84
2022-09-01T11:37:00.290Z,98768.28
2022-09-01T11:39:52.888Z,98767.75
2022-09-01T11:42:40.104Z,98776.53
2022-09-01T11:45:34.008Z,98776.53
2022-09-01T11:48:14.364Z,98784.56
2022-09-01T11:50:43.473Z,98787.94
2022-09-01T11:53:20.484Z,98780.69
2022-09-01T11:55:53.787Z,98775.53
2022-09-01T11:58:34.525Z,98771.91
2022-09-01T12:01:31.796Z,98782.53
2022-09-01T12:04:26.651Z,98782.25
2022-09-01T12:07:00.152Z,98773.94
2022-09-01T12:09:43.338Z,98775.75
2022-09-01T12:12:32.078Z,98783.22
2022-09-01T12:15:23.437Z,98784.75
2022-09-01T12:17:53.501Z,98789.91
2022-09-01T12:20:38.689Z,98780.78
2022-09-01T12:23:25.082Z,98775.88
2022-09-01T12:26:06.728Z,98785.16
2022-09-01T12:28:36.330Z,98787.19
2022-09-01T12:31:12.395Z,98789.25
2022-09-01T12:33:43.079Z,98798.53
2022-09-01T12:36:27.124Z,98794.13
2022-09-01T12:39:17.461Z,98795.84
2022-09-01T12:42:01.054Z,98800.41
2022-09-01T12:44:39.530Z,98796.47
2022-09-01T16:39:49.463Z,98917.09
2022-09-01T16:42:49.202Z,98920.91
2022-09-01T16:45:44.289Z,98927.63
2022-09-01T16:48:44.240Z,98919.75
2022-09-01T16:51:32.226Z,98922.28
2022-09-01T16:54:26.449Z,98911.03
2022-09-01T16:57:37.326Z,98920.16
2022-09-01T17:00:12.273Z,98922.84
2022-09-01T17:03:08.173Z,98917.69
2022-09-01T17:06:17.637Z,98922.38
2022-09-01T17:08:56.115Z,98929.06
2022-09-01T17:12:12.389Z,98928.31
2022-09-01T17:14:55.255Z,98929.84
2022-09-01T17:17:35.510Z,98927.53
2022-09-01T17:20:06.856Z,98926.97
2022-09-01T17:22:37.680Z,98934.22
2022-09-01T17:25:13.670Z,98938.34
2022-09-01T17:28:17.740Z,98933.00
2022-09-01T17:31:05.492Z,98940.03
2022-09-01T17:33:49.697Z,98944.63
2022-09-01T17:36:56.118Z,98940.81
2022-09-01T17:39:55.453Z,98944.63
2022-09-01T17:42:49.172Z,98948.75
2022-09-01T17:45:38.715Z,98939.72
2022-09-01T17:48:15.268Z,98941.41
2022-09-01T17:51:09.607Z,98947.31
2022-09-01T17:54:01.003Z,98949.03
2022-09-01T17:56:38.129Z,98947.91
2022-09-01T17:59:28.791Z,98950.47
2022-09-01T18:02:41.526Z,98963.34
2022-09-01T18:05:17.361Z,98961.47
2022-09-01T18:08:07.366Z,98963.16
2022-09-01T18:10:44.038Z,98967.19
2022-09-01T18:13:49.280Z,98968.63
2022-09-01T18:16:24.925Z,98978.91
2022-09-01T18:18:53.514Z,98971.19
2022-09-01T18:21:40.446Z,98977.25
2022-09-01T18:24:32.551Z,98971.78
2022-09-01T18:27:01.700Z,98972.56
2022-09-01T18:29:31.927Z,98975.91
2022-09-01T18:32:18.687Z,98974.91
2022-09-01T18:35:11.992Z,98987.56
2022-09-01T18:37:54.567Z,98979.03
2022-09-01T18:40:46.967Z,98984.41
2022-09-01T18:43:55.287Z,98984.84
2022-09-01T18:47:01.518Z,98988.00
2022-09-01T18:50:27.426Z,98996.38
2022-09-01T18:53:13.258Z,98996.81
2022-09-01T18:56:06.270Z,98995.81
2022-09-01T18:58:52.099Z,98994.78
2022-09-01T19:02:05.086Z,98994.03
2022-09-01T19:04:42.526Z,98995.25
2022-09-01T19:07:16.559Z,98992.69
2022-09-01T19:10:05.413Z,98991.59
2022-09-01T19:13:12.404Z,98989.00
2022-09-01T19:15:55.521Z,98991.78
2022-09-01T19:19:08.034Z,98994.72
2022-09-01T19:21:36.896Z,98992.13
2022-09-01T19:24:13.398Z,98990.56
2022-09-01T19:26:49.008Z,98988.56
2022-09-01T19:29:30.281Z,98993.91
2022-09-01T19:32:05.708Z,98993.13
2022-09-01T19:34:42.856Z,98997.38
2022-09-01T19:37:11.131Z,99002.50
2022-09-01T19:39:44.663Z,98999.53
2022-09-01T19:42:36.294Z,98994.25
2022-09-01T19:45:52.550Z,98999.97
2022-09-01T19:48:31.527Z,99007.09
2022-09-01T19:51:14.921Z,98997.03
2022-09-01T19:53:58.678Z,98998.06
2022-09-01T19:56:36.634Z,99000.63
2022-09-01T19:59:28.274Z,98994.94
2022-09-01T20:02:30.953Z,98995.25
2022-09-01T20:05:31.815Z,99005.53
2022-09-01T20:08:25.515Z,99002.88
2022-09-01T20:11:16.904Z,99005.09
2022-09-01T20:14:36.154Z,98995.94
2022-09-01T20:17:09.031Z,98990.31
2022-09-01T20:20:07.684Z,98999.41
2022-09-01T20:22:41.303Z,98999.75
2022-09-01T20:25:47.538Z,99007.00
2022-09-01T20:28:40.787Z,98999.81
2022-09-01T20:31:22.971Z,98997.25
2022-09-01T20:34:32.183Z,98991.56
2022-09-01T20:37:13.847Z,98999.97
2022-09-01T20:40:00.556Z,99002.06
2022-09-01T20:42:58.567Z,99002.97
2022-09-01T20:45:28.827Z,99013.69
2022-09-01T20:48:05.111Z,98991.09
2022-09-01T20:51:09.808Z,99007.53
2022-09-01T20:53:46.475Z,98999.19
2022-09-01T20:56:40.551Z,99006.22
2022-09-01T20:59:57.404Z,99009.81
2022-09-01T21:02:55.720Z,99005.53
2022-09-01T21:05:42.392Z,99016.84
2022-09-01T21:08:15.707Z,99016.16
2022-09-01T21:11:07.805Z,99010.69
2022-09-01T21:14:13.916Z,99012.88
2022-09-01T21:17:29.482Z,99017.63
2022-09-01T21:20:44.181Z,99014.25
2022-09-01T21:23:11.928Z,99011.84
2022-09-01T21:25:39.663Z,99004.75
2022-09-01T21:28:08.377Z,99013.03
2022-09-01T21:30:36.942Z,99013.13
2022-09-01T21:33:05.098Z,99013.81
2022-09-01T21:35:33.363Z,99005.66
2022-09-01T21:38:01.080Z,99008.78
2022-09-01T21:40:29.200Z,99004.06
2022-09-01T21:43:03.524Z,99004.66
2022-09-01T21:45:33.830Z,98998.06
2022-09-01T21:48:02.725Z,98997.94
2022-09-01T21:50:30.608Z,98999.53
2022-09-01T21:52:58.488Z,98990.25
2022-09-01T21:55:26.986Z,98993.38
2022-09-01T21:57:55.574Z,98994.38
2022-09-01T22:00:28.150Z,98995.94
2022-09-01T22:03:01.756Z,98992.34
2022-09-01T22:05:31.169Z,98992.81
2022-09-01T22:07:59.962Z,98984.88
2022-09-01T22:10:31.535Z,98992.34
2022-09-01T22:13:03.565Z,98978.25
2022-09-01T22:15:31.844Z,98989.78
2022-09-01T22:17:59.706Z,98982.72
2022-09-01T22:20:29.246Z,98988.66
2022-09-01T22:23:01.976Z,98984.50
2022-09-01T22:25:32.204Z,98972.44
2022-09-01T22:28:03.533Z,98964.41
2022-09-01T22:30:32.455Z,98975.69
2022-09-01T22:33:02.695Z,98961.06
2022-09-01T22:35:30.600Z,98964.97
2022-09-01T22:37:58.364Z,98967.53
2022-09-01T22:40:26.233Z,98958.59
2022-09-01T22:42:53.927Z,98968.06
2022-09-01T22:45:21.642Z,98963.53
2022-09-01T22:47:49.351Z,98964.31
2022-09-01T22:50:17.075Z,98957.78
2022-09-01T22:52:44.953Z,98958.25
2022-09-01T22:55:13.683Z,98950.88
2022-09-01T22:57:41.528Z,98954.00
2022-09-01T23:00:10.761Z,98954.81
2022-09-01T23:02:39.394Z,98952.44
2022-09-01T23:05:08.405Z,98943.69
2022-09-01T23:07:39.624Z,98960.06
2022-09-01T23:10:09.442Z,98949.78
2022-09-01T23:12:37.572Z,98955.31
2022-09-01T23:15:06.298Z,98958.78
2022-09-01T23:17:36.725Z,98953.09
2022-09-01T23:20:12.996Z,98948.16
2022-09-01T23:22:42.972Z,98954.09
2022-09-01T23:25:14.491Z,98948.84
2022-09-01T23:27:43.061Z,98943.91
2022-09-01T23:30:14.456Z,98937.00
2022-09-01T23:32:42.514Z,98940.13
2022-09-01T23:35:11.141Z,98924.91
2022-09-01T23:37:38.981Z,98932.63
2022-09-01T23:40:08.302Z,98935.84
2022-09-01T23:42:36.151Z,98932.31
2022-09-01T23:45:05.038Z,98934.28
2022-09-01T23:47:32.931Z,98931.16
2022-09-01T23:50:02.523Z,98927.59
2022-09-01T23:52:30.954Z,98928.16
2022-09-01T23:54:58.916Z,98918.66
2022-09-01T23:57:26.771Z,98927.38
2022-09-01T23:59:57.781Z,98913.19
